Time;durP1;ratioP1;P1;durP2;ratioP2;P2;SDS_P1;SDS_P2;PMS_P1;PMS_P2;Temp;Humidity;BMP_temperature;BMP_pressure;BME280_temperature;BME280_humidity;BME280_pressure;Samples;Min_cycle;Max_cycle;Signal;HPM_P1;HPM_P2
2022/08/22 00:01:59;;;;;;;1.80;1.10;;;21.40;73.70;;;;;;4989510;28;20247;-73
2022/08/22 00:04:52;;;;;;;2.22;1.10;;;21.40;73.30;;;;;;4992466;28;20234;-73
2022/08/22 00:07:52;;;;;;;1.98;1.00;;;21.30;75.00;;;;;;4974632;28;20203;-72
2022/08/22 00:10:30;;;;;;;2.08;0.98;;;21.30;75.00;;;;;;4989271;28;20235;-73
2022/08/22 00:13:31;;;;;;;2.95;1.38;;;21.30;75.50;;;;;;4975459;28;20226;-72
2022/08/22 00:16:15;;;;;;;2.45;1.30;;;21.20;76.00;;;;;;4975131;28;20207;-73
2022/08/22 00:19:07;;;;;;;3.30;1.40;;;21.20;74.40;;;;;;4990987;28;22082;-73
2022/08/22 00:22:06;;;;;;;4.50;1.17;;;21.10;75.70;;;;;;4973396;28;20176;-73
2022/08/22 00:25:00;;;;;;;2.22;1.10;;;21.10;76.40;;;;;;4991434;28;20187;-74
2022/08/22 00:27:36;;;;;;;2.42;1.15;;;21.00;76.20;;;;;;4958297;28;20204;-73
2022/08/22 00:30:16;;;;;;;2.70;1.17;;;21.00;76.00;;;;;;4974507;28;20172;-73
2022/08/22 00:32:49;;;;;;;2.10;1.20;;;20.90;76.40;;;;;;4974654;28;20176;-73
2022/08/22 00:35:40;;;;;;;2.13;1.13;;;20.90;76.30;;;;;;4975211;28;20238;-73
2022/08/22 00:38:16;;;;;;;2.90;1.20;;;20.90;76.70;;;;;;4973488;28;20220;-73
2022/08/22 00:40:59;;;;;;;2.17;1.00;;;20.90;76.50;;;;;;4974792;28;20195;-72
2022/08/22 00:44:04;;;;;;;2.15;1.23;;;20.80;76.20;;;;;;4974699;28;20227;-73
2022/08/22 00:46:50;;;;;;;3.08;1.13;;;20.80;77.30;;;;;;4964646;28;20183;-74
2022/08/22 00:49:51;;;;;;;3.53;1.20;;;20.80;76.90;;;;;;4971970;28;20239;-72
2022/08/22 00:52:20;;;;;;;1.63;1.10;;;20.70;77.00;;;;;;4942897;28;20180;-73
2022/08/22 00:55:10;;;;;;;2.25;0.88;;;20.70;76.80;;;;;;4966513;28;20203;-73
2022/08/22 00:57:57;;;;;;;1.73;0.90;;;20.60;77.50;;;;;;4988886;28;20295;-73
2022/08/22 01:00:26;;;;;;;3.05;1.10;;;20.60;77.40;;;;;;4970420;28;20207;-65
2022/08/22 01:03:10;;;;;;;2.40;1.08;;;20.60;78.00;;;;;;4977654;28;20245;-68
2022/08/22 01:06:03;;;;;;;3.13;1.25;;;20.60;77.80;;;;;;4980175;28;20263;-68
2022/08/22 01:08:37;;;;;;;1.77;1.10;;;20.50;79.20;;;;;;4986573;28;20223;-70
2022/08/22 01:11:29;;;;;;;4.07;1.10;;;20.50;78.40;;;;;;4974010;28;20204;-68
2022/08/22 01:13:54;;;;;;;3.00;1.10;;;20.50;79.80;;;;;;4974569;28;20243;-68
2022/08/22 01:16:46;;;;;;;2.67;1.17;;;20.40;78.60;;;;;;4968901;28;20255;-67
2022/08/22 01:19:33;;;;;;;2.20;1.23;;;20.40;80.50;;;;;;4964773;28;20207;-68
2022/08/22 01:22:34;;;;;;;3.40;1.20;;;20.30;80.50;;;;;;4990427;28;20206;-68
2022/08/22 01:25:27;;;;;;;1.83;0.90;;;20.30;80.50;;;;;;4988649;28;20176;-68
2022/08/22 01:28:06;;;;;;;1.85;1.13;;;20.20;80.80;;;;;;4968872;28;20191;-67
2022/08/22 01:30:59;;;;;;;2.35;1.13;;;20.20;81.10;;;;;;4973688;28;20180;-67
2022/08/22 01:33:53;;;;;;;2.30;1.25;;;20.10;81.60;;;;;;4985655;28;20242;-68
2022/08/22 01:36:37;;;;;;;2.63;1.23;;;20.10;81.60;;;;;;4971642;28;20283;-68
2022/08/22 01:39:24;;;;;;;3.45;1.27;;;20.00;81.20;;;;;;4973862;28;20286;-68
2022/08/22 01:42:08;;;;;;;3.30;1.40;;;20.00;81.00;;;;;;4974025;28;20199;-68
2022/08/22 01:44:53;;;;;;;2.15;1.45;;;20.00;82.90;;;;;;4972082;28;20266;-68
2022/08/22 01:47:44;;;;;;;3.47;1.40;;;20.00;83.00;;;;;;4967458;28;20319;-66
2022/08/22 01:50:35;;;;;;;2.85;1.20;;;19.90;83.20;;;;;;4966197;28;20215;-65
2022/08/22 01:53:13;;;;;;;2.90;1.17;;;19.90;84.10;;;;;;4973909;28;20186;-66
2022/08/22 01:56:00;;;;;;;2.53;1.30;;;19.90;83.30;;;;;;4990363;28;20207;-65
2022/08/22 01:58:31;;;;;;;4.15;1.20;;;19.90;84.40;;;;;;4986402;28;20214;-67
2022/08/22 02:01:13;;;;;;;4.20;1.30;;;19.80;83.70;;;;;;4968785;28;20239;-68
2022/08/22 02:04:00;;;;;;;3.47;1.20;;;19.80;84.50;;;;;;4987297;28;20187;-68
2022/08/22 02:06:43;;;;;;;2.85;1.10;;;19.80;84.00;;;;;;4986995;28;20211;-68
2022/08/22 02:09:22;;;;;;;3.00;1.10;;;19.70;84.80;;;;;;4973603;28;20184;-67
2022/08/22 02:12:01;;;;;;;3.10;1.30;;;19.70;85.80;;;;;;4964504;28;20252;-68
2022/08/22 02:14:31;;;;;;;4.55;1.42;;;19.60;85.50;;;;;;4971210;28;20183;-68
2022/08/22 02:17:13;;;;;;;2.10;1.08;;;19.60;85.40;;;;;;4971738;28;20771;-69
2022/08/22 02:20:02;;;;;;;2.67;1.25;;;19.60;86.50;;;;;;4971427;28;20299;-68
2022/08/22 02:22:48;;;;;;;4.03;1.50;;;19.60;87.50;;;;;;4953163;28;20361;-68
2022/08/22 02:25:22;;;;;;;2.53;1.35;;;19.50;85.80;;;;;;4967448;28;20284;-68
2022/08/22 02:27:53;;;;;;;3.05;1.33;;;19.50;87.00;;;;;;4970914;28;20191;-67
2022/08/22 02:30:44;;;;;;;3.30;1.42;;;19.50;86.60;;;;;;4979851;28;20253;-67
2022/08/22 02:33:34;;;;;;;2.85;1.40;;;19.50;88.50;;;;;;4972311;28;20183;-67
2022/08/22 02:36:08;;;;;;;2.85;1.20;;;19.40;87.90;;;;;;4967506;28;20246;-68
2022/08/22 02:39:05;;;;;;;3.22;1.15;;;19.40;88.00;;;;;;4976854;28;20211;-67
2022/08/22 02:41:47;;;;;;;1.98;1.20;;;19.30;89.50;;;;;;4989831;28;20252;-68
2022/08/22 02:44:25;;;;;;;2.15;1.30;;;19.30;90.00;;;;;;4973776;28;20180;-68
2022/08/22 02:47:01;;;;;;;2.88;1.30;;;19.20;89.60;;;;;;4974069;28;20168;-70
2022/08/22 02:49:34;;;;;;;5.07;1.30;;;19.30;89.80;;;;;;4989979;28;20180;-68
2022/08/22 02:52:11;;;;;;;1.75;1.30;;;19.20;89.90;;;;;;4975393;28;20175;-68
2022/08/22 02:55:17;;;;;;;4.15;1.30;;;19.30;90.20;;;;;;4968101;28;20192;-68
2022/08/22 02:58:06;;;;;;;3.40;1.30;;;19.20;90.70;;;;;;4969618;28;20188;-67
2022/08/22 03:01:08;;;;;;;2.58;1.23;;;19.20;90.90;;;;;;4977527;28;20226;-65
2022/08/22 03:03:40;;;;;;;3.28;1.20;;;19.30;90.90;;;;;;4975542;28;20201;-65
2022/08/22 03:06:41;;;;;;;2.88;1.20;;;19.20;90.50;;;;;;4976791;28;20254;-66
2022/08/22 03:09:19;;;;;;;2.38;1.05;;;19.20;91.00;;;;;;4970478;28;20274;-66
2022/08/22 03:12:02;;;;;;;2.25;1.25;;;19.20;90.30;;;;;;4993154;28;20199;-66
2022/08/22 03:14:43;;;;;;;3.00;1.23;;;19.20;90.60;;;;;;4976506;28;20226;-65
2022/08/22 03:17:22;;;;;;;2.65;1.30;;;19.10;90.90;;;;;;4971250;28;20203;-65
2022/08/22 03:19:49;;;;;;;2.63;1.15;;;19.10;90.60;;;;;;4968402;28;20171;-65
2022/08/22 03:22:24;;;;;;;2.53;1.33;;;19.00;90.40;;;;;;4969522;28;20196;-65
2022/08/22 03:25:02;;;;;;;3.00;1.20;;;19.00;90.70;;;;;;4970957;28;20176;-65
2022/08/22 03:27:34;;;;;;;2.97;1.30;;;18.90;90.60;;;;;;4976407;28;20187;-66
2022/08/22 03:30:15;;;;;;;4.35;2.97;;;18.90;91.40;;;;;;4977046;28;20200;-65
2022/08/22 03:33:13;;;;;;;5.53;2.95;;;18.90;91.40;;;;;;4971782;28;20246;-65
2022/08/22 03:35:57;;;;;;;3.88;2.30;;;18.90;92.10;;;;;;4968368;28;20188;-65
2022/08/22 03:38:32;;;;;;;4.80;2.33;;;18.80;92.00;;;;;;4973843;28;20200;-65
2022/08/22 03:41:00;;;;;;;5.18;2.40;;;18.80;91.80;;;;;;4975470;28;20223;-66
2022/08/22 03:43:53;;;;;;;3.58;1.60;;;18.80;91.60;;;;;;4975391;28;20207;-67
2022/08/22 03:46:36;;;;;;;3.08;1.67;;;18.80;92.40;;;;;;4989748;28;20169;-66
2022/08/22 03:49:32;;;;;;;2.53;1.60;;;18.80;92.80;;;;;;4976029;28;20180;-66
2022/08/22 03:52:14;;;;;;;3.17;1.92;;;18.70;92.70;;;;;;4986975;28;20212;-68
2022/08/22 03:55:11;;;;;;;3.30;1.45;;;18.70;92.50;;;;;;4985770;28;20184;-66
2022/08/22 03:58:08;;;;;;;7.22;5.38;;;18.70;93.20;;;;;;4975518;28;20275;-65
2022/08/22 04:00:39;;;;;;;14.77;10.70;;;18.80;93.30;;;;;;4973796;28;20250;-66
2022/08/22 04:03:16;;;;;;;8.82;5.75;;;18.70;93.00;;;;;;4962192;28;20270;-66
2022/08/22 04:06:07;;;;;;;5.55;3.90;;;18.70;92.90;;;;;;4972857;28;20211;-66
2022/08/22 04:08:53;;;;;;;4.38;3.00;;;18.70;93.90;;;;;;4975401;28;20198;-66
2022/08/22 04:11:48;;;;;;;5.05;2.50;;;18.70;93.90;;;;;;4985091;28;20204;-66
2022/08/22 04:14:16;;;;;;;3.47;2.40;;;18.70;94.10;;;;;;4990670;28;20184;-66
2022/08/22 04:17:00;;;;;;;3.88;2.47;;;18.70;93.30;;;;;;4970491;28;20203;-67
2022/08/22 04:19:47;;;;;;;3.88;1.85;;;18.70;93.40;;;;;;4974383;28;20197;-66
2022/08/22 04:22:24;;;;;;;3.10;1.75;;;18.70;94.00;;;;;;4975205;28;20198;-68
2022/08/22 04:25:06;;;;;;;10.90;7.63;;;18.60;93.80;;;;;;4973366;28;20176;-67
2022/08/22 04:27:46;;;;;;;12.25;8.50;;;18.60;94.70;;;;;;4970485;28;20236;-66
2022/08/22 04:30:21;;;;;;;9.35;5.32;;;18.60;94.50;;;;;;4975793;28;20294;-67
2022/08/22 04:33:13;;;;;;;7.15;4.07;;;18.50;94.50;;;;;;4990333;28;20215;-67
2022/08/22 04:35:54;;;;;;;6.38;3.60;;;18.50;95.20;;;;;;4966928;28;20196;-66
2022/08/22 04:38:41;;;;;;;4.95;3.03;;;18.50;94.80;;;;;;4977358;28;21516;-66
2022/08/22 04:41:15;;;;;;;6.95;3.10;;;18.50;95.10;;;;;;4961291;28;20306;-66
2022/08/22 04:43:53;;;;;;;5.03;2.28;;;18.50;94.80;;;;;;4973219;28;20171;-66
2022/08/22 04:46:22;;;;;;;4.22;1.90;;;18.50;95.60;;;;;;4971341;28;20195;-66
2022/08/22 04:49:15;;;;;;;4.60;2.20;;;18.50;95.20;;;;;;4971626;28;20192;-66
2022/08/22 04:52:02;;;;;;;13.35;2.10;;;18.50;96.60;;;;;;4967513;28;20199;-66
2022/08/22 04:54:45;;;;;;;3.42;1.60;;;18.40;96.50;;;;;;4966658;28;20195;-66
2022/08/22 04:57:31;;;;;;;3.10;1.80;;;18.40;96.60;;;;;;4969783;28;20287;-66
2022/08/22 05:00:05;;;;;;;3.03;1.70;;;18.30;96.80;;;;;;4971753;28;20223;-67
2022/08/22 05:02:34;;;;;;;3.33;1.50;;;18.40;96.50;;;;;;4987595;28;20184;-66
2022/08/22 05:05:07;;;;;;;4.50;1.67;;;18.30;96.70;;;;;;4974527;28;20176;-65
2022/08/22 05:07:38;;;;;;;5.53;1.80;;;18.30;96.70;;;;;;4964265;28;20183;-66
2022/08/22 05:10:16;;;;;;;3.03;1.63;;;18.30;96.70;;;;;;4988918;28;20239;-65
2022/08/22 05:12:59;;;;;;;3.28;1.50;;;18.30;97.10;;;;;;4967768;28;20286;-66
2022/08/22 05:15:32;;;;;;;3.60;1.52;;;18.40;97.50;;;;;;4989364;28;20176;-73
2022/08/22 05:18:08;;;;;;;3.08;1.70;;;18.40;97.10;;;;;;4986862;28;20278;-73
2022/08/22 05:20:38;;;;;;;5.22;1.77;;;18.30;97.20;;;;;;4968965;28;20179;-74
2022/08/22 05:23:25;;;;;;;4.00;1.50;;;18.30;97.10;;;;;;4973296;28;20184;-74
2022/08/22 05:26:01;;;;;;;3.58;1.50;;;18.40;97.70;;;;;;4976644;28;20195;-73
2022/08/22 05:28:45;;;;;;;5.60;1.80;;;18.30;97.60;;;;;;4990749;28;20192;-72
2022/08/22 05:31:19;;;;;;;3.60;1.70;;;18.30;97.10;;;;;;4971696;28;20168;-74
2022/08/22 05:33:52;;;;;;;3.95;1.52;;;18.30;97.50;;;;;;4975102;28;20184;-73
2022/08/22 05:36:32;;;;;;;3.78;1.65;;;18.20;97.80;;;;;;4975469;28;20184;-73
2022/08/22 05:39:01;;;;;;;4.00;1.55;;;18.20;98.00;;;;;;4975964;28;20231;-75
2022/08/22 05:41:31;;;;;;;3.92;1.85;;;18.20;97.60;;;;;;4978457;28;20180;-76
2022/08/22 05:44:01;;;;;;;4.72;1.80;;;18.20;97.80;;;;;;4991632;28;20179;-73
2022/08/22 05:46:43;;;;;;;2.80;1.60;;;18.20;97.80;;;;;;4990995;28;20200;-74
2022/08/22 05:49:27;;;;;;;3.17;1.88;;;18.20;98.70;;;;;;4975075;28;20199;-74
2022/08/22 05:51:59;;;;;;;4.18;1.75;;;18.20;98.90;;;;;;4973890;28;20179;-73
2022/08/22 05:54:32;;;;;;;2.47;1.70;;;18.30;98.90;;;;;;4976323;28;20176;-73
2022/08/22 05:57:28;;;;;;;4.18;2.10;;;18.30;98.70;;;;;;4991175;28;20184;-74
2022/08/22 06:00:18;;;;;;;4.75;1.90;;;18.30;99.40;;;;;;4974758;28;20227;-74
2022/08/22 06:03:14;;;;;;;2.63;1.58;;;18.30;99.70;;;;;;4961714;28;20188;-73
2022/08/22 06:05:46;;;;;;;3.50;1.60;;;18.40;99.50;;;;;;4991419;28;20175;-74
2022/08/22 06:08:50;;;;;;;4.22;1.70;;;18.40;99.30;;;;;;4990137;28;20194;-75
2022/08/22 06:11:40;;;;;;;2.95;1.70;;;18.50;99.60;;;;;;4955350;28;20208;-74
2022/08/22 06:14:21;;;;;;;3.60;1.95;;;18.50;99.90;;;;;;5009916;28;20212;-71
2022/08/22 06:16:55;;;;;;;3.10;1.90;;;18.60;99.70;;;;;;4962757;28;20180;-74
2022/08/22 06:19:24;;;;;;;3.55;1.88;;;18.60;99.70;;;;;;4993032;28;20231;-72
2022/08/22 06:21:53;;;;;;;2.83;1.80;;;18.60;99.50;;;;;;4976684;28;20172;-74
2022/08/22 06:24:23;;;;;;;4.60;2.33;;;18.70;99.70;;;;;;4996008;28;20207;-74
2022/08/22 06:26:54;;;;;;;4.30;2.30;;;18.70;99.90;;;;;;4992537;28;20263;-74
2022/08/22 06:29:33;;;;;;;4.28;2.15;;;18.80;99.90;;;;;;4972378;28;20172;-74
2022/08/22 06:32:07;;;;;;;4.90;1.98;;;18.80;99.90;;;;;;4978605;28;20175;-74
2022/08/22 06:34:39;;;;;;;4.88;1.90;;;18.80;99.90;;;;;;4979280;28;20167;-75
2022/08/22 06:37:09;;;;;;;4.10;2.08;;;18.90;99.90;;;;;;4983201;28;20231;-73
2022/08/22 06:39:40;;;;;;;4.95;2.28;;;18.90;99.90;;;;;;4995772;28;20176;-74
2022/08/22 06:42:21;;;;;;;7.43;2.30;;;19.00;99.90;;;;;;4996505;28;20168;-73
2022/08/22 06:45:00;;;;;;;6.18;2.65;;;19.00;99.90;;;;;;4997064;28;20176;-74
2022/08/22 06:47:31;;;;;;;5.10;2.17;;;19.10;99.90;;;;;;4977420;28;20207;-74
2022/08/22 06:50:08;;;;;;;4.15;2.28;;;19.20;99.90;;;;;;4978365;28;20207;-74
2022/08/22 06:52:47;;;;;;;5.53;2.47;;;19.20;99.90;;;;;;4995100;28;20180;-74
2022/08/22 06:55:14;;;;;;;3.72;2.10;;;19.20;99.90;;;;;;4978794;28;20183;-73
2022/08/22 06:57:55;;;;;;;3.20;2.05;;;19.30;99.90;;;;;;4991152;28;20220;-72
2022/08/22 07:00:21;;;;;;;5.45;2.03;;;19.40;99.90;;;;;;4992976;28;20232;-73
2022/08/22 07:03:01;;;;;;;6.43;2.30;;;19.40;99.90;;;;;;4991197;28;20169;-75
2022/08/22 07:05:35;;;;;;;3.97;2.03;;;19.50;99.90;;;;;;4979054;28;20164;-74
2022/08/22 07:08:12;;;;;;;4.25;1.88;;;19.50;99.90;;;;;;4978276;28;20214;-73
2022/08/22 07:10:55;;;;;;;3.80;2.00;;;19.60;99.90;;;;;;4994395;28;20171;-73
2022/08/22 07:13:23;;;;;;;4.82;2.17;;;19.70;99.90;;;;;;4981134;28;20196;-74
2022/08/22 07:15:55;;;;;;;5.50;2.28;;;19.70;99.90;;;;;;4977881;28;20182;-74
2022/08/22 07:18:24;;;;;;;6.18;2.15;;;19.80;99.90;;;;;;4972586;28;20258;-74
2022/08/22 07:20:53;;;;;;;4.32;2.42;;;19.90;99.90;;;;;;4987729;28;20205;-74
2022/08/22 07:23:46;;;;;;;3.38;2.00;;;20.00;99.90;;;;;;4987881;28;20202;-67
2022/08/22 07:26:37;;;;;;;3.88;1.90;;;20.10;99.90;;;;;;5001096;28;20180;-74
2022/08/22 07:29:19;;;;;;;3.65;1.92;;;20.20;99.90;;;;;;4978399;28;20260;-73
2022/08/22 07:32:00;;;;;;;3.58;1.80;;;20.20;99.90;;;;;;4976315;28;20231;-74
2022/08/22 07:34:52;;;;;;;3.25;1.77;;;20.30;99.90;;;;;;4958677;29;20207;-74
2022/08/22 07:37:42;;;;;;;3.53;1.48;;;20.40;99.90;;;;;;4977586;28;20302;-74
2022/08/22 07:40:09;;;;;;;2.35;1.58;;;20.50;99.90;;;;;;4981229;28;20186;-74
2022/08/22 07:42:48;;;;;;;2.92;1.80;;;20.50;99.90;;;;;;4978291;28;20172;-73
2022/08/22 07:45:39;;;;;;;2.72;1.65;;;20.70;99.90;;;;;;4978955;28;20210;-74
2022/08/22 07:48:48;;;;;;;3.03;1.40;;;20.80;99.90;;;;;;4970765;28;20204;-74
2022/08/22 07:51:23;;;;;;;4.28;1.88;;;20.80;99.90;;;;;;4982006;28;20207;-74
2022/08/22 07:54:04;;;;;;;3.28;1.77;;;20.90;99.90;;;;;;4967021;28;20238;-73
2022/08/22 07:56:37;;;;;;;3.40;1.60;;;21.00;99.90;;;;;;4998124;28;20188;-75
2022/08/22 07:59:15;;;;;;;3.25;1.77;;;21.00;99.90;;;;;;4993523;28;20232;-74
2022/08/22 08:01:52;;;;;;;2.70;1.65;;;21.10;99.90;;;;;;4987276;28;20204;-75
2022/08/22 08:04:23;;;;;;;3.67;1.80;;;21.20;99.90;;;;;;4978681;28;20179;-74
2022/08/22 08:06:55;;;;;;;4.28;1.67;;;21.30;99.90;;;;;;4970975;28;20200;-74
2022/08/22 08:09:23;;;;;;;3.05;1.65;;;21.40;99.90;;;;;;4977076;28;20211;-74
2022/08/22 08:11:54;;;;;;;3.05;1.65;;;21.50;99.90;;;;;;4991962;28;20236;-74
2022/08/22 08:14:22;;;;;;;2.50;1.90;;;21.60;99.90;;;;;;4959860;29;20165;-74
2022/08/22 08:17:05;;;;;;;4.60;1.70;;;21.70;99.90;;;;;;4976750;28;20194;-74
2022/08/22 08:19:36;;;;;;;2.78;1.73;;;21.90;99.90;;;;;;4968321;28;20210;-71
2022/08/22 08:22:04;;;;;;;2.42;1.25;;;22.10;99.90;;;;;;4977464;28;20208;-74
2022/08/22 08:24:41;;;;;;;1.60;1.25;;;22.20;99.90;;;;;;4992108;28;21323;-73
2022/08/22 08:30:04;;;;;;;2.47;1.40;;;22.60;99.90;;;;;;4958664;28;20203;-74
2022/08/22 08:32:36;;;;;;;3.58;1.35;;;22.70;99.90;;;;;;4982822;28;20180;-74
2022/08/22 08:35:17;;;;;;;2.92;1.80;;;22.90;99.90;;;;;;4989970;28;20192;-68
2022/08/22 08:38:08;;;;;;;3.17;1.42;;;23.10;99.50;;;;;;4978710;28;20219;-75
2022/08/22 08:40:52;;;;;;;2.75;1.40;;;23.30;98.90;;;;;;4965258;28;20211;-75
2022/08/22 08:43:56;;;;;;;2.38;1.25;;;23.40;99.50;;;;;;4978998;28;20223;-73
2022/08/22 08:46:30;;;;;;;2.65;1.20;;;23.70;99.00;;;;;;4966347;28;20191;-76
2022/08/22 08:49:08;;;;;;;2.47;1.42;;;23.80;99.20;;;;;;4976214;28;20180;-75
2022/08/22 08:52:06;;;;;;;2.08;1.20;;;24.10;98.10;;;;;;4977193;28;20180;-75
2022/08/22 08:54:53;;;;;;;1.77;1.10;;;24.30;97.70;;;;;;4968129;28;20208;-74
2022/08/22 08:57:48;;;;;;;3.42;1.42;;;24.40;98.20;;;;;;4977670;28;20199;-75
2022/08/22 09:00:45;;;;;;;2.95;1.20;;;24.60;97.00;;;;;;4975507;28;20200;-75
2022/08/22 09:03:29;;;;;;;2.25;1.20;;;24.70;96.60;;;;;;4976803;28;20184;-75
2022/08/22 09:06:05;;;;;;;2.50;1.25;;;24.80;96.10;;;;;;4975772;28;20195;-74
2022/08/22 09:09:03;;;;;;;2.40;1.20;;;24.80;95.70;;;;;;4976482;28;20203;-75
2022/08/22 09:11:34;;;;;;;2.20;1.20;;;24.90;94.90;;;;;;4961509;28;20244;-74
2022/08/22 09:14:18;;;;;;;2.10;1.27;;;24.90;95.60;;;;;;4967832;28;20171;-90
2022/08/22 09:17:21;;;;;;;2.65;1.08;;;25.00;94.20;;;;;;4995634;28;20160;-86
2022/08/22 09:20:24;;;;;;;1.58;1.10;;;25.10;94.20;;;;;;4976967;28;20183;-88
2022/08/22 09:23:14;;;;;;;2.63;1.15;;;25.20;93.50;;;;;;4976547;28;20179;-87
2022/08/22 09:25:50;;;;;;;1.85;1.20;;;25.20;92.90;;;;;;4975903;28;20207;-85
2022/08/22 09:28:25;;;;;;;1.40;1.02;;;25.30;92.90;;;;;;4986114;28;20230;-89
2022/08/22 09:31:02;;;;;;;2.70;1.50;;;25.40;93.30;;;;;;4991068;28;20208;-88
2022/08/22 09:33:54;;;;;;;3.10;1.52;;;25.50;93.20;;;;;;4976232;28;20180;-89
2022/08/22 09:36:46;;;;;;;2.92;1.50;;;25.70;92.00;;;;;;4961982;28;20202;-88
2022/08/22 09:39:30;;;;;;;2.55;1.60;;;25.80;92.10;;;;;;4993113;28;20216;-90
2022/08/22 09:42:17;;;;;;;1.70;1.25;;;26.00;92.00;;;;;;4962112;28;20183;-88
2022/08/22 09:44:57;;;;;;;2.65;1.33;;;26.10;91.70;;;;;;4974913;28;20287;-88
2022/08/22 09:47:29;;;;;;;3.63;1.40;;;26.30;90.40;;;;;;4976620;28;20235;-88
2022/08/22 09:50:16;;;;;;;2.05;1.20;;;26.50;90.90;;;;;;4961200;28;20279;-89
2022/08/22 09:52:42;;;;;;;3.05;1.10;;;26.60;90.20;;;;;;4974743;28;20180;-90
2022/08/22 09:55:30;;;;;;;2.10;1.20;;;26.70;90.90;;;;;;4982742;28;20263;-88
2022/08/22 09:58:07;;;;;;;2.50;1.35;;;26.80;88.90;;;;;;4983712;28;20262;-88
2022/08/22 10:00:51;;;;;;;1.73;1.10;;;26.90;88.80;;;;;;4973718;28;20176;-87
2022/08/22 10:03:53;;;;;;;3.05;1.40;;;26.90;87.70;;;;;;4974173;28;20192;-92
2022/08/22 10:06:40;;;;;;;1.63;1.00;;;27.00;87.90;;;;;;4921646;29;20260;-87
2022/08/22 10:09:15;;;;;;;1.70;1.10;;;27.00;87.00;;;;;;4974236;28;20288;-90
2022/08/22 10:11:44;;;;;;;3.13;1.20;;;27.00;87.20;;;;;;4974204;28;20202;-80
2022/08/22 10:14:24;;;;;;;3.92;1.38;;;27.00;88.10;;;;;;4961763;28;20274;-90
2022/08/22 10:17:01;;;;;;;1.98;1.25;;;27.00;85.80;;;;;;4977903;28;20210;-89
2022/08/22 10:19:41;;;;;;;3.70;1.25;;;27.00;84.90;;;;;;4979851;28;20195;-86
2022/08/22 10:22:41;;;;;;;2.25;1.20;;;27.00;85.50;;;;;;4993178;28;20211;-88
2022/08/22 10:25:43;;;;;;;2.05;1.00;;;27.10;84.40;;;;;;4975657;28;20181;-88
2022/08/22 10:28:18;;;;;;;2.45;1.30;;;27.10;84.00;;;;;;4988424;28;20176;-89
2022/08/22 10:30:55;;;;;;;2.10;1.30;;;27.20;85.80;;;;;;4982567;28;20180;-88
2022/08/22 10:33:31;;;;;;;2.67;1.20;;;27.40;84.70;;;;;;4975358;28;20180;-89
2022/08/22 10:36:06;;;;;;;2.20;1.40;;;27.70;84.40;;;;;;4975602;28;20207;-91
2022/08/22 10:38:44;;;;;;;2.40;1.30;;;27.90;83.50;;;;;;4976088;28;20230;-87
2022/08/22 10:41:37;;;;;;;2.08;1.30;;;28.10;82.50;;;;;;4976752;28;20184;-86
2022/08/22 10:44:37;;;;;;;1.92;1.30;;;28.40;81.20;;;;;;4976309;28;20223;-91
2022/08/22 10:47:16;;;;;;;2.42;1.40;;;28.40;80.50;;;;;;4976878;28;20176;-88
2022/08/22 10:50:01;;;;;;;2.22;1.20;;;28.40;79.60;;;;;;4974650;28;20188;-85
2022/08/22 10:52:34;;;;;;;1.67;1.20;;;28.40;78.60;;;;;;4982320;28;20172;-87
2022/08/22 10:55:27;;;;;;;3.22;1.30;;;28.30;78.30;;;;;;4970037;28;20282;-88
2022/08/22 10:57:56;;;;;;;1.63;1.20;;;28.30;77.50;;;;;;4967200;28;20211;-89
2022/08/22 11:00:31;;;;;;;1.73;1.20;;;28.40;79.90;;;;;;4975837;28;20172;-87
2022/08/22 11:03:41;;;;;;;1.88;1.20;;;28.50;77.90;;;;;;4975332;28;20183;-85
2022/08/22 11:06:18;;;;;;;4.07;1.33;;;28.80;77.90;;;;;;4906170;29;20253;-88
2022/08/22 11:08:49;;;;;;;1.65;1.33;;;29.00;75.10;;;;;;4960277;28;20184;-91
2022/08/22 11:11:22;;;;;;;1.70;1.23;;;29.30;78.20;;;;;;4981940;28;20180;-85
2022/08/22 11:13:50;;;;;;;1.95;1.30;;;29.70;77.20;;;;;;4961573;29;20267;-89
2022/08/22 11:16:37;;;;;;;2.78;1.30;;;30.00;77.30;;;;;;4966034;28;20262;-87
2022/08/22 11:19:38;;;;;;;2.22;1.05;;;30.30;73.80;;;;;;4991584;28;20204;-92
2022/08/22 11:22:32;;;;;;;1.88;1.23;;;30.30;73.40;;;;;;4973113;28;20196;-91
2022/08/22 11:25:26;;;;;;;2.00;1.08;;;30.30;72.70;;;;;;4978437;28;20179;-89
2022/08/22 11:27:58;;;;;;;2.65;1.50;;;30.40;74.20;;;;;;4982800;28;20184;-89
2022/08/22 11:30:37;;;;;;;1.88;1.30;;;30.50;72.50;;;;;;4994399;28;20176;-90
2022/08/22 11:33:09;;;;;;;1.83;1.30;;;30.50;72.20;;;;;;4994072;28;20281;-88
2022/08/22 11:35:54;;;;;;;1.50;1.13;;;30.50;71.40;;;;;;4978742;28;20192;-86
2022/08/22 11:38:37;;;;;;;4.18;1.50;;;30.60;71.30;;;;;;4992010;28;20203;-88
2022/08/22 11:41:14;;;;;;;2.70;1.30;;;30.60;69.60;;;;;;4995737;28;20310;-88
2022/08/22 11:43:58;;;;;;;3.45;1.30;;;30.60;69.20;;;;;;4988217;28;20229;-89
2022/08/22 11:46:32;;;;;;;3.03;1.50;;;30.60;70.00;;;;;;4977463;28;20202;-89
2022/08/22 11:49:08;;;;;;;2.00;1.25;;;30.70;68.50;;;;;;4995761;28;20183;-89
2022/08/22 11:51:33;;;;;;;1.88;1.23;;;30.90;68.50;;;;;;4983358;28;20204;-89
2022/08/22 11:54:11;;;;;;;2.00;1.35;;;31.00;70.10;;;;;;4982012;28;20179;-86
2022/08/22 11:57:02;;;;;;;1.52;1.10;;;31.30;68.40;;;;;;4977671;28;20190;-92
2022/08/22 11:59:46;;;;;;;2.45;1.30;;;31.50;67.10;;;;;;4984757;28;20192;-88
2022/08/22 12:02:24;;;;;;;2.15;1.13;;;31.70;68.40;;;;;;4978619;28;20171;-90
2022/08/22 12:05:02;;;;;;;2.47;1.20;;;31.70;65.40;;;;;;4975269;28;20199;-88
2022/08/22 12:07:36;;;;;;;2.20;1.50;;;31.70;65.00;;;;;;4992932;28;20179;-89
2022/08/22 12:10:11;;;;;;;3.90;1.60;;;31.70;64.70;;;;;;4976656;28;20210;-87
2022/08/22 12:12:54;;;;;;;2.45;1.55;;;31.60;63.10;;;;;;4977828;28;20252;-89
2022/08/22 12:15:27;;;;;;;2.20;1.25;;;31.60;62.80;;;;;;4966350;28;20211;-89
2022/08/22 12:18:23;;;;;;;2.45;1.35;;;31.60;63.90;;;;;;4977268;28;20230;-90
2022/08/22 12:21:17;;;;;;;2.08;1.20;;;31.80;63.20;;;;;;4977982;28;20238;-89
2022/08/22 12:24:00;;;;;;;2.80;1.30;;;31.90;63.70;;;;;;4979202;28;20214;-90
2022/08/22 12:26:58;;;;;;;4.18;1.25;;;32.10;63.20;;;;;;4978962;28;20222;-84
2022/08/22 12:29:29;;;;;;;1.42;1.20;;;32.20;61.90;;;;;;4976902;28;20202;-84
2022/08/22 12:32:13;;;;;;;3.83;1.80;;;32.30;62.90;;;;;;4978205;28;20250;-89
2022/08/22 12:35:09;;;;;;;2.60;1.23;;;32.50;63.90;;;;;;4974361;28;20200;-89
2022/08/22 12:37:52;;;;;;;2.92;1.35;;;32.70;60.70;;;;;;4982029;28;20226;-92
2022/08/22 12:40:26;;;;;;;2.28;1.58;;;32.90;60.40;;;;;;4967589;28;20174;-88
2022/08/22 12:42:58;;;;;;;3.15;1.23;;;33.10;60.50;;;;;;4994089;28;20285;-85
2022/08/22 12:45:36;;;;;;;2.05;1.33;;;33.30;60.90;;;;;;4978206;28;20182;-81
2022/08/22 12:48:12;;;;;;;1.67;1.20;;;33.60;59.50;;;;;;4979348;28;20210;-85
2022/08/22 12:50:58;;;;;;;1.90;1.15;;;33.90;59.10;;;;;;4977865;28;20163;-85
2022/08/22 12:54:01;;;;;;;4.40;1.58;;;34.10;55.00;;;;;;4977082;28;20176;-86
2022/08/22 12:57:12;;;;;;;1.45;1.13;;;34.30;58.30;;;;;;4968913;28;20238;-84
2022/08/22 12:59:45;;;;;;;2.25;1.30;;;34.40;56.90;;;;;;4978610;28;20198;-86
2022/08/22 13:02:25;;;;;;;3.85;1.55;;;34.40;57.00;;;;;;4985682;28;20171;-84
2022/08/22 13:04:54;;;;;;;1.67;1.33;;;34.40;57.00;;;;;;4979103;28;20252;-87
2022/08/22 13:07:19;;;;;;;2.88;1.60;;;34.50;56.30;;;;;;4976149;28;20200;-86
2022/08/22 13:09:51;;;;;;;1.60;1.25;;;34.50;56.30;;;;;;4976365;28;20194;-84
2022/08/22 13:12:55;;;;;;;3.38;1.73;;;34.40;55.50;;;;;;4973882;28;20187;-87
2022/08/22 13:15:30;;;;;;;2.78;1.17;;;34.40;55.10;;;;;;4973019;28;20171;-85
2022/08/22 13:18:00;;;;;;;3.95;1.70;;;34.50;55.00;;;;;;4985240;28;20191;-86
2022/08/22 13:20:36;;;;;;;1.85;1.40;;;34.50;55.20;;;;;;4976864;28;20214;-87
2022/08/22 13:23:18;;;;;;;2.67;1.67;;;34.50;54.30;;;;;;4975937;28;20217;-87
2022/08/22 13:26:20;;;;;;;2.15;1.40;;;34.40;54.30;;;;;;4978248;28;20207;-85
2022/08/22 13:28:49;;;;;;;3.67;1.50;;;34.30;53.70;;;;;;4975446;28;20245;-89
2022/08/22 13:31:31;;;;;;;5.47;1.40;;;34.10;53.60;;;;;;4974944;28;20179;-87
2022/08/22 13:34:04;;;;;;;3.08;1.60;;;34.00;53.00;;;;;;4968151;28;20190;-86
2022/08/22 13:36:40;;;;;;;3.95;1.80;;;33.70;52.90;;;;;;4988162;28;20186;-86
2022/08/22 13:39:30;;;;;;;2.38;1.40;;;33.60;52.80;;;;;;4987286;28;20231;-86
2022/08/22 13:42:02;;;;;;;5.15;1.40;;;33.30;51.80;;;;;;4957066;28;20180;-85
2022/08/22 13:44:45;;;;;;;2.78;1.42;;;33.10;52.00;;;;;;4972904;28;20202;-81
2022/08/22 13:47:16;;;;;;;2.47;1.33;;;32.90;51.50;;;;;;4991703;28;20171;-79
2022/08/22 13:50:09;;;;;;;2.83;1.50;;;32.70;52.50;;;;;;4959157;28;20180;-85
2022/08/22 13:52:46;;;;;;;2.20;1.33;;;32.60;52.90;;;;;;4969398;28;20286;-85
2022/08/22 13:55:24;;;;;;;2.22;1.60;;;32.40;52.40;;;;;;4975409;28;20171;-79
2022/08/22 13:58:00;;;;;;;5.45;1.77;;;32.30;52.70;;;;;;4972124;28;20283;-85
2022/08/22 14:00:46;;;;;;;4.05;1.60;;;32.20;52.80;;;;;;4975989;28;20190;-84
2022/08/22 14:03:20;;;;;;;2.53;1.45;;;32.20;52.80;;;;;;4992314;28;20286;-83